sensor_id;sensor_type;location;lat;lon;timestamp;P1;durP1;ratioP1;P2;durP2;ratioP2
4122;SDS011;2075;51.062;6.920;2023-02-17T00:01:30;12.83;;;9.27;;
4122;SDS011;2075;51.062;6.920;2023-02-17T00:04:17;16.20;;;9.63;;
4122;SDS011;2075;51.062;6.920;2023-02-17T00:07:02;17.57;;;9.80;;
4122;SDS011;2075;51.062;6.920;2023-02-17T00:09:49;14.97;;;8.90;;
4122;SDS011;2075;51.062;6.920;2023-02-17T00:12:35;11.93;;;8.40;;
4122;SDS011;2075;51.062;6.920;2023-02-17T00:15:20;13.07;;;9.23;;
4122;SDS011;2075;51.062;6.920;2023-02-17T00:18:07;17.60;;;9.00;;
4122;SDS011;2075;51.062;6.920;2023-02-17T00:20:52;15.40;;;8.93;;
4122;SDS011;2075;51.062;6.920;2023-02-17T00:23:40;13.07;;;8.57;;
4122;SDS011;2075;51.062;6.920;2023-02-17T00:26:26;13.80;;;8.90;;
4122;SDS011;2075;51.062;6.920;2023-02-17T00:29:11;16.67;;;8.50;;
4122;SDS011;2075;51.062;6.920;2023-02-17T00:31:57;16.63;;;8.20;;
4122;SDS011;2075;51.062;6.920;2023-02-17T00:34:43;16.53;;;8.40;;
4122;SDS011;2075;51.062;6.920;2023-02-17T00:37:33;19.13;;;7.90;;
4122;SDS011;2075;51.062;6.920;2023-02-17T00:40:19;11.03;;;8.13;;
4122;SDS011;2075;51.062;6.920;2023-02-17T00:43:05;10.40;;;7.53;;
4122;SDS011;2075;51.062;6.920;2023-02-17T00:45:50;11.53;;;7.90;;
4122;SDS011;2075;51.062;6.920;2023-02-17T00:48:37;12.53;;;7.70;;
4122;SDS011;2075;51.062;6.920;2023-02-17T00:51:24;14.77;;;7.80;;
4122;SDS011;2075;51.062;6.920;2023-02-17T00:54:10;16.23;;;8.23;;
4122;SDS011;2075;51.062;6.920;2023-02-17T00:56:55;13.50;;;7.93;;
4122;SDS011;2075;51.062;6.920;2023-02-17T00:59:41;9.70;;;7.80;;
4122;SDS011;2075;51.062;6.920;2023-02-17T01:02:26;9.70;;;7.37;;
4122;SDS011;2075;51.062;6.920;2023-02-17T01:05:11;13.63;;;8.57;;
4122;SDS011;2075;51.062;6.920;2023-02-17T01:07:58;13.23;;;8.00;;
4122;SDS011;2075;51.062;6.920;2023-02-17T01:10:44;14.73;;;8.40;;
4122;SDS011;2075;51.062;6.920;2023-02-17T01:13:31;13.20;;;8.03;;
4122;SDS011;2075;51.062;6.920;2023-02-17T01:16:17;13.03;;;7.20;;
4122;SDS011;2075;51.062;6.920;2023-02-17T01:19:04;12.37;;;7.97;;
4122;SDS011;2075;51.062;6.920;2023-02-17T01:21:52;11.63;;;7.53;;
4122;SDS011;2075;51.062;6.920;2023-02-17T01:24:38;11.00;;;7.10;;
4122;SDS011;2075;51.062;6.920;2023-02-17T01:27:24;16.57;;;8.97;;
4122;SDS011;2075;51.062;6.920;2023-02-17T01:30:11;11.47;;;7.10;;
4122;SDS011;2075;51.062;6.920;2023-02-17T01:32:57;16.90;;;7.40;;
4122;SDS011;2075;51.062;6.920;2023-02-17T01:35:42;10.97;;;7.27;;
4122;SDS011;2075;51.062;6.920;2023-02-17T01:38:29;11.63;;;7.50;;
4122;SDS011;2075;51.062;6.920;2023-02-17T01:41:16;11.60;;;7.10;;
4122;SDS011;2075;51.062;6.920;2023-02-17T01:44:04;11.43;;;7.90;;
4122;SDS011;2075;51.062;6.920;2023-02-17T01:46:54;11.40;;;7.73;;
4122;SDS011;2075;51.062;6.920;2023-02-17T01:49:40;11.00;;;7.60;;
4122;SDS011;2075;51.062;6.920;2023-02-17T01:52:25;12.70;;;7.30;;
4122;SDS011;2075;51.062;6.920;2023-02-17T01:55:11;10.97;;;7.23;;
4122;SDS011;2075;51.062;6.920;2023-02-17T01:58:01;10.77;;;8.03;;
4122;SDS011;2075;51.062;6.920;2023-02-17T02:00:48;9.43;;;7.33;;
4122;SDS011;2075;51.062;6.920;2023-02-17T02:03:38;13.67;;;8.10;;
4122;SDS011;2075;51.062;6.920;2023-02-17T02:06:25;13.77;;;7.80;;
4122;SDS011;2075;51.062;6.920;2023-02-17T02:09:14;16.90;;;7.87;;
4122;SDS011;2075;51.062;6.920;2023-02-17T02:12:13;12.93;;;7.60;;
4122;SDS011;2075;51.062;6.920;2023-02-17T02:15:04;10.00;;;7.40;;
4122;SDS011;2075;51.062;6.920;2023-02-17T02:18:02;12.83;;;7.90;;
4122;SDS011;2075;51.062;6.920;2023-02-17T02:21:10;13.30;;;7.80;;
4122;SDS011;2075;51.062;6.920;2023-02-17T02:27:24;13.97;;;8.70;;
4122;SDS011;2075;51.062;6.920;2023-02-17T02:33:44;10.50;;;8.00;;
4122;SDS011;2075;51.062;6.920;2023-02-17T02:36:35;15.03;;;9.20;;
4122;SDS011;2075;51.062;6.920;2023-02-17T02:39:26;11.40;;;8.53;;
4122;SDS011;2075;51.062;6.920;2023-02-17T02:42:17;11.10;;;8.13;;
4122;SDS011;2075;51.062;6.920;2023-02-17T02:45:08;11.57;;;8.77;;
4122;SDS011;2075;51.062;6.920;2023-02-17T02:47:55;13.27;;;8.67;;
4122;SDS011;2075;51.062;6.920;2023-02-17T02:51:00;13.50;;;8.53;;
4122;SDS011;2075;51.062;6.920;2023-02-17T02:54:26;14.60;;;8.20;;
4122;SDS011;2075;51.062;6.920;2023-02-17T02:57:20;16.20;;;8.43;;
4122;SDS011;2075;51.062;6.920;2023-02-17T03:00:18;15.80;;;8.57;;
4122;SDS011;2075;51.062;6.920;2023-02-17T03:03:11;16.33;;;9.30;;
4122;SDS011;2075;51.062;6.920;2023-02-17T03:06:05;13.90;;;8.97;;
4122;SDS011;2075;51.062;6.920;2023-02-17T03:08:56;12.57;;;8.50;;
4122;SDS011;2075;51.062;6.920;2023-02-17T03:11:46;12.20;;;8.87;;
4122;SDS011;2075;51.062;6.920;2023-02-17T03:14:34;10.50;;;7.93;;
4122;SDS011;2075;51.062;6.920;2023-02-17T03:17:21;12.33;;;8.47;;
4122;SDS011;2075;51.062;6.920;2023-02-17T03:20:07;20.50;;;8.60;;
4122;SDS011;2075;51.062;6.920;2023-02-17T03:22:55;11.37;;;8.23;;
4122;SDS011;2075;51.062;6.920;2023-02-17T03:25:41;11.57;;;8.17;;
4122;SDS011;2075;51.062;6.920;2023-02-17T03:28:28;10.47;;;7.80;;
4122;SDS011;2075;51.062;6.920;2023-02-17T03:31:14;14.57;;;8.20;;
4122;SDS011;2075;51.062;6.920;2023-02-17T03:34:00;10.53;;;8.10;;
4122;SDS011;2075;51.062;6.920;2023-02-17T03:36:45;12.87;;;8.73;;
4122;SDS011;2075;51.062;6.920;2023-02-17T03:39:32;10.97;;;7.40;;
4122;SDS011;2075;51.062;6.920;2023-02-17T03:42:18;13.10;;;8.27;;
4122;SDS011;2075;51.062;6.920;2023-02-17T03:45:04;11.40;;;8.40;;
4122;SDS011;2075;51.062;6.920;2023-02-17T03:47:50;10.33;;;8.47;;
4122;SDS011;2075;51.062;6.920;2023-02-17T03:50:35;11.27;;;7.93;;
4122;SDS011;2075;51.062;6.920;2023-02-17T03:53:20;11.53;;;8.17;;
4122;SDS011;2075;51.062;6.920;2023-02-17T03:56:07;10.77;;;7.87;;
4122;SDS011;2075;51.062;6.920;2023-02-17T03:58:53;13.20;;;8.53;;
4122;SDS011;2075;51.062;6.920;2023-02-17T04:01:38;9.97;;;7.20;;
4122;SDS011;2075;51.062;6.920;2023-02-17T04:04:24;9.50;;;7.60;;
4122;SDS011;2075;51.062;6.920;2023-02-17T04:07:09;12.83;;;8.30;;
4122;SDS011;2075;51.062;6.920;2023-02-17T04:09:54;12.40;;;7.90;;
4122;SDS011;2075;51.062;6.920;2023-02-17T04:12:41;9.33;;;7.40;;
4122;SDS011;2075;51.062;6.920;2023-02-17T04:15:27;12.77;;;7.80;;
4122;SDS011;2075;51.062;6.920;2023-02-17T04:18:13;9.67;;;7.73;;
4122;SDS011;2075;51.062;6.920;2023-02-17T04:20:58;11.57;;;8.00;;
4122;SDS011;2075;51.062;6.920;2023-02-17T04:23:44;10.07;;;7.43;;
4122;SDS011;2075;51.062;6.920;2023-02-17T04:26:29;9.30;;;7.20;;
4122;SDS011;2075;51.062;6.920;2023-02-17T04:29:16;11.83;;;7.63;;
4122;SDS011;2075;51.062;6.920;2023-02-17T04:32:02;9.87;;;7.90;;
4122;SDS011;2075;51.062;6.920;2023-02-17T04:34:47;11.70;;;8.60;;
4122;SDS011;2075;51.062;6.920;2023-02-17T04:37:32;10.30;;;7.50;;
4122;SDS011;2075;51.062;6.920;2023-02-17T04:40:18;10.43;;;8.00;;
4122;SDS011;2075;51.062;6.920;2023-02-17T04:43:04;10.70;;;7.57;;
4122;SDS011;2075;51.062;6.920;2023-02-17T04:45:50;18.43;;;7.33;;
4122;SDS011;2075;51.062;6.920;2023-02-17T04:48:36;11.80;;;7.40;;
4122;SDS011;2075;51.062;6.920;2023-02-17T04:51:21;9.73;;;7.60;;
4122;SDS011;2075;51.062;6.920;2023-02-17T04:54:07;10.10;;;7.63;;
4122;SDS011;2075;51.062;6.920;2023-02-17T04:56:52;9.53;;;8.07;;
4122;SDS011;2075;51.062;6.920;2023-02-17T04:59:38;12.27;;;8.03;;
4122;SDS011;2075;51.062;6.920;2023-02-17T05:02:24;9.83;;;7.73;;
4122;SDS011;2075;51.062;6.920;2023-02-17T05:05:11;10.93;;;7.90;;
4122;SDS011;2075;51.062;6.920;2023-02-17T05:07:58;12.13;;;8.53;;
4122;SDS011;2075;51.062;6.920;2023-02-17T05:10:43;16.60;;;7.40;;
4122;SDS011;2075;51.062;6.920;2023-02-17T05:13:28;9.70;;;8.10;;
4122;SDS011;2075;51.062;6.920;2023-02-17T05:16:16;10.10;;;7.73;;
4122;SDS011;2075;51.062;6.920;2023-02-17T05:19:03;11.03;;;7.90;;
4122;SDS011;2075;51.062;6.920;2023-02-17T05:21:48;8.63;;;7.40;;
4122;SDS011;2075;51.062;6.920;2023-02-17T05:24:34;11.07;;;8.57;;
4122;SDS011;2075;51.062;6.920;2023-02-17T05:27:19;9.30;;;7.57;;
4122;SDS011;2075;51.062;6.920;2023-02-17T05:30:05;11.47;;;7.60;;
4122;SDS011;2075;51.062;6.920;2023-02-17T05:32:51;11.43;;;8.67;;
4122;SDS011;2075;51.062;6.920;2023-02-17T05:35:37;13.03;;;7.03;;
4122;SDS011;2075;51.062;6.920;2023-02-17T05:38:23;10.80;;;8.13;;
4122;SDS011;2075;51.062;6.920;2023-02-17T05:41:08;8.63;;;7.73;;
4122;SDS011;2075;51.062;6.920;2023-02-17T05:43:54;10.73;;;8.00;;
4122;SDS011;2075;51.062;6.920;2023-02-17T05:46:39;12.20;;;7.40;;
4122;SDS011;2075;51.062;6.920;2023-02-17T05:49:25;7.77;;;6.80;;
4122;SDS011;2075;51.062;6.920;2023-02-17T05:52:11;10.97;;;7.07;;
4122;SDS011;2075;51.062;6.920;2023-02-17T05:54:57;12.17;;;7.30;;
4122;SDS011;2075;51.062;6.920;2023-02-17T05:57:42;9.20;;;7.20;;
4122;SDS011;2075;51.062;6.920;2023-02-17T06:00:28;10.03;;;8.37;;
4122;SDS011;2075;51.062;6.920;2023-02-17T06:03:13;10.70;;;6.60;;
4122;SDS011;2075;51.062;6.920;2023-02-17T06:05:59;9.20;;;6.93;;
4122;SDS011;2075;51.062;6.920;2023-02-17T06:08:46;12.80;;;7.30;;
4122;SDS011;2075;51.062;6.920;2023-02-17T06:11:32;9.20;;;6.13;;
4122;SDS011;2075;51.062;6.920;2023-02-17T06:14:17;10.57;;;6.90;;
4122;SDS011;2075;51.062;6.920;2023-02-17T06:17:03;12.10;;;7.17;;
4122;SDS011;2075;51.062;6.920;2023-02-17T06:19:48;9.60;;;7.33;;
4122;SDS011;2075;51.062;6.920;2023-02-17T06:22:34;8.47;;;6.47;;
4122;SDS011;2075;51.062;6.920;2023-02-17T06:25:20;11.37;;;6.80;;
4122;SDS011;2075;51.062;6.920;2023-02-17T06:28:06;9.13;;;7.03;;
4122;SDS011;2075;51.062;6.920;2023-02-17T06:30:51;12.87;;;6.70;;
4122;SDS011;2075;51.062;6.920;2023-02-17T06:33:37;10.20;;;7.87;;
4122;SDS011;2075;51.062;6.920;2023-02-17T06:36:25;10.93;;;7.80;;
4122;SDS011;2075;51.062;6.920;2023-02-17T06:39:10;7.17;;;6.13;;
4122;SDS011;2075;51.062;6.920;2023-02-17T06:41:57;10.60;;;7.17;;
4122;SDS011;2075;51.062;6.920;2023-02-17T06:44:43;12.40;;;7.10;;
4122;SDS011;2075;51.062;6.920;2023-02-17T06:47:28;12.57;;;7.67;;
4122;SDS011;2075;51.062;6.920;2023-02-17T06:50:13;14.20;;;7.03;;
4122;SDS011;2075;51.062;6.920;2023-02-17T06:52:59;11.20;;;6.53;;
4122;SDS011;2075;51.062;6.920;2023-02-17T06:55:44;7.70;;;6.70;;
4122;SDS011;2075;51.062;6.920;2023-02-17T06:58:31;9.13;;;6.90;;
4122;SDS011;2075;51.062;6.920;2023-02-17T07:01:19;15.03;;;7.50;;
4122;SDS011;2075;51.062;6.920;2023-02-17T07:04:09;8.43;;;6.67;;
4122;SDS011;2075;51.062;6.920;2023-02-17T07:06:54;8.70;;;7.30;;
4122;SDS011;2075;51.062;6.920;2023-02-17T07:09:39;9.57;;;7.30;;
4122;SDS011;2075;51.062;6.920;2023-02-17T07:12:27;9.93;;;7.03;;
4122;SDS011;2075;51.062;6.920;2023-02-17T07:15:14;8.57;;;6.83;;
4122;SDS011;2075;51.062;6.920;2023-02-17T07:17:59;16.20;;;8.27;;
4122;SDS011;2075;51.062;6.920;2023-02-17T07:20:45;12.30;;;7.97;;
4122;SDS011;2075;51.062;6.920;2023-02-17T07:23:31;10.33;;;7.70;;
4122;SDS011;2075;51.062;6.920;2023-02-17T07:26:16;10.83;;;7.53;;
4122;SDS011;2075;51.062;6.920;2023-02-17T07:29:02;8.40;;;7.13;;
4122;SDS011;2075;51.062;6.920;2023-02-17T07:31:50;9.33;;;6.97;;
4122;SDS011;2075;51.062;6.920;2023-02-17T07:34:36;11.27;;;6.70;;
4122;SDS011;2075;51.062;6.920;2023-02-17T07:37:26;12.80;;;7.60;;
4122;SDS011;2075;51.062;6.920;2023-02-17T07:40:12;10.37;;;7.33;;
4122;SDS011;2075;51.062;6.920;2023-02-17T07:42:58;11.47;;;7.40;;
4122;SDS011;2075;51.062;6.920;2023-02-17T07:45:43;14.67;;;8.57;;
4122;SDS011;2075;51.062;6.920;2023-02-17T07:48:30;13.23;;;6.43;;
4122;SDS011;2075;51.062;6.920;2023-02-17T07:51:16;20.40;;;6.60;;
4122;SDS011;2075;51.062;6.920;2023-02-17T07:54:03;8.83;;;6.40;;
4122;SDS011;2075;51.062;6.920;2023-02-17T07:56:48;15.20;;;6.80;;
4122;SDS011;2075;51.062;6.920;2023-02-17T07:59:34;13.03;;;8.80;;
4122;SDS011;2075;51.062;6.920;2023-02-17T08:02:19;13.93;;;6.23;;
4122;SDS011;2075;51.062;6.920;2023-02-17T08:05:06;9.93;;;6.70;;
4122;SDS011;2075;51.062;6.920;2023-02-17T08:07:52;8.07;;;6.30;;
4122;SDS011;2075;51.062;6.920;2023-02-17T08:10:51;9.70;;;7.10;;
4122;SDS011;2075;51.062;6.920;2023-02-17T08:13:54;9.80;;;6.90;;
4122;SDS011;2075;51.062;6.920;2023-02-17T08:16:42;11.00;;;6.70;;
4122;SDS011;2075;51.062;6.920;2023-02-17T08:19:27;11.90;;;7.07;;
4122;SDS011;2075;51.062;6.920;2023-02-17T08:22:14;13.23;;;7.50;;
4122;SDS011;2075;51.062;6.920;2023-02-17T08:25:00;8.70;;;6.87;;
4122;SDS011;2075;51.062;6.920;2023-02-17T08:27:48;11.47;;;7.87;;
4122;SDS011;2075;51.062;6.920;2023-02-17T08:30:37;8.17;;;6.27;;
4122;SDS011;2075;51.062;6.920;2023-02-17T08:33:22;9.40;;;6.63;;
4122;SDS011;2075;51.062;6.920;2023-02-17T08:36:10;10.87;;;6.60;;
4122;SDS011;2075;51.062;6.920;2023-02-17T08:38:58;7.20;;;5.33;;
4122;SDS011;2075;51.062;6.920;2023-02-17T08:41:44;9.40;;;6.47;;
4122;SDS011;2075;51.062;6.920;2023-02-17T08:44:32;11.33;;;5.93;;
4122;SDS011;2075;51.062;6.920;2023-02-17T08:47:19;8.40;;;6.47;;
4122;SDS011;2075;51.062;6.920;2023-02-17T08:50:05;10.57;;;7.57;;
4122;SDS011;2075;51.062;6.920;2023-02-17T08:52:54;8.67;;;6.70;;
4122;SDS011;2075;51.062;6.920;2023-02-17T08:55:41;6.87;;;5.57;;
4122;SDS011;2075;51.062;6.920;2023-02-17T08:58:30;14.60;;;6.97;;
4122;SDS011;2075;51.062;6.920;2023-02-17T09:01:16;13.53;;;7.60;;
4122;SDS011;2075;51.062;6.920;2023-02-17T09:04:08;10.60;;;8.10;;
4122;SDS011;2075;51.062;6.920;2023-02-17T09:06:56;8.00;;;6.20;;
4122;SDS011;2075;51.062;6.920;2023-02-17T09:09:45;9.03;;;7.70;;
4122;SDS011;2075;51.062;6.920;2023-02-17T09:12:31;8.23;;;6.60;;
4122;SDS011;2075;51.062;6.920;2023-02-17T09:15:17;5.43;;;4.80;;
4122;SDS011;2075;51.062;6.920;2023-02-17T09:18:02;6.30;;;5.03;;
4122;SDS011;2075;51.062;6.920;2023-02-17T09:20:51;9.00;;;6.10;;
4122;SDS011;2075;51.062;6.920;2023-02-17T09:23:37;7.90;;;5.90;;
4122;SDS011;2075;51.062;6.920;2023-02-17T09:26:23;11.60;;;7.90;;
4122;SDS011;2075;51.062;6.920;2023-02-17T09:29:09;9.60;;;7.53;;
4122;SDS011;2075;51.062;6.920;2023-02-17T09:31:55;6.07;;;5.37;;
4122;SDS011;2075;51.062;6.920;2023-02-17T09:34:41;7.63;;;5.33;;
4122;SDS011;2075;51.062;6.920;2023-02-17T09:37:32;13.87;;;6.27;;
4122;SDS011;2075;51.062;6.920;2023-02-17T09:40:19;16.47;;;8.53;;
4122;SDS011;2075;51.062;6.920;2023-02-17T09:43:07;6.60;;;5.90;;
4122;SDS011;2075;51.062;6.920;2023-02-17T09:46:01;12.47;;;7.37;;
4122;SDS011;2075;51.062;6.920;2023-02-17T09:48:53;8.00;;;6.00;;
4122;SDS011;2075;51.062;6.920;2023-02-17T09:51:43;5.10;;;4.60;;
4122;SDS011;2075;51.062;6.920;2023-02-17T09:54:33;5.90;;;4.90;;
4122;SDS011;2075;51.062;6.920;2023-02-17T09:57:26;5.80;;;4.27;;
4122;SDS011;2075;51.062;6.920;2023-02-17T10:00:14;6.33;;;5.00;;
4122;SDS011;2075;51.062;6.920;2023-02-17T10:03:07;7.50;;;4.93;;
4122;SDS011;2075;51.062;6.920;2023-02-17T10:06:01;6.85;;;5.13;;
4122;SDS011;2075;51.062;6.920;2023-02-17T10:08:58;11.47;;;4.60;;
4122;SDS011;2075;51.062;6.920;2023-02-17T10:11:49;6.55;;;5.82;;
4122;SDS011;2075;51.062;6.920;2023-02-17T10:14:44;7.90;;;5.30;;
4122;SDS011;2075;51.062;6.920;2023-02-17T10:17:34;4.80;;;4.40;;
4122;SDS011;2075;51.062;6.920;2023-02-17T10:20:35;4.87;;;3.70;;
4122;SDS011;2075;51.062;6.920;2023-02-17T10:23:26;4.50;;;3.50;;
4122;SDS011;2075;51.062;6.920;2023-02-17T10:26:14;4.20;;;3.80;;
4122;SDS011;2075;51.062;6.920;2023-02-17T10:29:11;5.80;;;3.90;;
4122;SDS011;2075;51.062;6.920;2023-02-17T10:32:06;5.97;;;4.55;;
4122;SDS011;2075;51.062;6.920;2023-02-17T10:35:11;6.77;;;4.20;;
4122;SDS011;2075;51.062;6.920;2023-02-17T10:38:00;5.43;;;4.93;;
4122;SDS011;2075;51.062;6.920;2023-02-17T10:40:52;4.93;;;4.40;;
4122;SDS011;2075;51.062;6.920;2023-02-17T10:43:40;4.70;;;4.20;;
4122;SDS011;2075;51.062;6.920;2023-02-17T10:46:28;7.83;;;4.40;;
4122;SDS011;2075;51.062;6.920;2023-02-17T10:49:16;4.65;;;3.67;;
4122;SDS011;2075;51.062;6.920;2023-02-17T10:52:09;5.60;;;3.17;;
4122;SDS011;2075;51.062;6.920;2023-02-17T10:55:00;21.67;;;3.23;;
4122;SDS011;2075;51.062;6.920;2023-02-17T10:57:58;3.53;;;3.23;;
4122;SDS011;2075;51.062;6.920;2023-02-17T11:00:48;4.43;;;3.60;;
4122;SDS011;2075;51.062;6.920;2023-02-17T11:03:39;5.17;;;3.37;;
4122;SDS011;2075;51.062;6.920;2023-02-17T11:06:25;4.70;;;3.50;;
4122;SDS011;2075;51.062;6.920;2023-02-17T11:09:18;4.60;;;3.03;;
4122;SDS011;2075;51.062;6.920;2023-02-17T11:12:13;3.10;;;2.90;;
4122;SDS011;2075;51.062;6.920;2023-02-17T11:15:02;3.33;;;3.13;;
4122;SDS011;2075;51.062;6.920;2023-02-17T11:17:49;3.45;;;3.00;;
4122;SDS011;2075;51.062;6.920;2023-02-17T11:20:35;7.63;;;3.20;;
4122;SDS011;2075;51.062;6.920;2023-02-17T11:23:22;3.93;;;2.70;;
4122;SDS011;2075;51.062;6.920;2023-02-17T11:26:09;2.93;;;2.73;;
4122;SDS011;2075;51.062;6.920;2023-02-17T11:29:08;3.20;;;3.00;;
4122;SDS011;2075;51.062;6.920;2023-02-17T11:31:59;2.97;;;2.67;;
4122;SDS011;2075;51.062;6.920;2023-02-17T11:34:55;6.73;;;3.67;;
4122;SDS011;2075;51.062;6.920;2023-02-17T11:37:41;3.37;;;2.57;;
4122;SDS011;2075;51.062;6.920;2023-02-17T11:40:28;4.37;;;3.07;;
4122;SDS011;2075;51.062;6.920;2023-02-17T11:43:14;7.53;;;3.13;;
4122;SDS011;2075;51.062;6.920;2023-02-17T11:46:10;2.80;;;2.60;;
4122;SDS011;2075;51.062;6.920;2023-02-17T11:49:11;5.10;;;2.87;;
4122;SDS011;2075;51.062;6.920;2023-02-17T11:52:12;2.20;;;2.10;;
4122;SDS011;2075;51.062;6.920;2023-02-17T11:55:14;3.40;;;2.73;;
4122;SDS011;2075;51.062;6.920;2023-02-17T11:58:09;3.40;;;2.93;;
4122;SDS011;2075;51.062;6.920;2023-02-17T12:01:05;3.83;;;2.63;;
4122;SDS011;2075;51.062;6.920;2023-02-17T12:04:09;3.73;;;2.50;;
4122;SDS011;2075;51.062;6.920;2023-02-17T12:07:13;3.80;;;3.30;;
4122;SDS011;2075;51.062;6.920;2023-02-17T12:10:19;13.05;;;2.78;;
4122;SDS011;2075;51.062;6.920;2023-02-17T12:13:19;3.13;;;2.40;;
4122;SDS011;2075;51.062;6.920;2023-02-17T12:16:20;6.97;;;2.43;;
4122;SDS011;2075;51.062;6.920;2023-02-17T12:19:18;2.90;;;2.70;;
4122;SDS011;2075;51.062;6.920;2023-02-17T12:22:21;3.47;;;2.55;;
4122;SDS011;2075;51.062;6.920;2023-02-17T12:25:23;5.57;;;2.67;;
4122;SDS011;2075;51.062;6.920;2023-02-17T12:28:29;5.00;;;3.00;;
4122;SDS011;2075;51.062;6.920;2023-02-17T12:31:32;6.03;;;3.80;;
4122;SDS011;2075;51.062;6.920;2023-02-17T12:34:28;17.77;;;13.00;;
4122;SDS011;2075;51.062;6.920;2023-02-17T12:37:16;9.13;;;3.63;;
4122;SDS011;2075;51.062;6.920;2023-02-17T12:40:06;5.80;;;3.43;;
4122;SDS011;2075;51.062;6.920;2023-02-17T12:43:05;3.30;;;3.00;;
4122;SDS011;2075;51.062;6.920;2023-02-17T12:46:13;4.70;;;3.43;;
4122;SDS011;2075;51.062;6.920;2023-02-17T12:49:03;8.50;;;3.20;;
4122;SDS011;2075;51.062;6.920;2023-02-17T12:51:54;3.83;;;3.43;;
4122;SDS011;2075;51.062;6.920;2023-02-17T12:54:46;4.40;;;2.57;;
4122;SDS011;2075;51.062;6.920;2023-02-17T12:57:37;8.23;;;3.20;;
4122;SDS011;2075;51.062;6.920;2023-02-17T13:00:31;3.03;;;2.73;;
4122;SDS011;2075;51.062;6.920;2023-02-17T13:03:20;8.20;;;2.97;;
4122;SDS011;2075;51.062;6.920;2023-02-17T13:06:10;10.30;;;3.30;;
4122;SDS011;2075;51.062;6.920;2023-02-17T13:09:07;3.10;;;2.80;;
4122;SDS011;2075;51.062;6.920;2023-02-17T13:12:08;6.37;;;2.83;;
4122;SDS011;2075;51.062;6.920;2023-02-17T13:15:03;4.67;;;2.80;;
4122;SDS011;2075;51.062;6.920;2023-02-17T13:17:51;4.33;;;3.60;;
4122;SDS011;2075;51.062;6.920;2023-02-17T13:20:41;3.30;;;3.00;;
4122;SDS011;2075;51.062;6.920;2023-02-17T13:23:40;2.90;;;2.70;;
4122;SDS011;2075;51.062;6.920;2023-02-17T13:26:28;4.13;;;3.00;;
4122;SDS011;2075;51.062;6.920;2023-02-17T13:29:20;5.93;;;2.93;;
4122;SDS011;2075;51.062;6.920;2023-02-17T13:32:25;4.40;;;3.37;;
4122;SDS011;2075;51.062;6.920;2023-02-17T13:35:27;3.17;;;2.87;;
4122;SDS011;2075;51.062;6.920;2023-02-17T13:38:24;5.70;;;3.57;;
4122;SDS011;2075;51.062;6.920;2023-02-17T13:41:12;4.13;;;2.77;;
4122;SDS011;2075;51.062;6.920;2023-02-17T13:43:58;4.87;;;3.27;;
4122;SDS011;2075;51.062;6.920;2023-02-17T13:46:43;3.30;;;3.00;;
4122;SDS011;2075;51.062;6.920;2023-02-17T13:49:30;7.67;;;2.60;;
4122;SDS011;2075;51.062;6.920;2023-02-17T13:52:18;4.33;;;2.70;;
4122;SDS011;2075;51.062;6.920;2023-02-17T13:55:16;4.73;;;3.43;;
4122;SDS011;2075;51.062;6.920;2023-02-17T13:58:04;5.77;;;3.07;;
4122;SDS011;2075;51.062;6.920;2023-02-17T14:00:50;2.90;;;2.70;;
4122;SDS011;2075;51.062;6.920;2023-02-17T14:03:40;4.73;;;3.10;;
4122;SDS011;2075;51.062;6.920;2023-02-17T14:06:28;3.27;;;2.97;;
4122;SDS011;2075;51.062;6.920;2023-02-17T14:09:20;3.43;;;2.83;;
4122;SDS011;2075;51.062;6.920;2023-02-17T14:12:08;3.93;;;3.00;;
4122;SDS011;2075;51.062;6.920;2023-02-17T14:15:11;5.60;;;3.30;;
4122;SDS011;2075;51.062;6.920;2023-02-17T14:17:59;2.60;;;2.50;;
4122;SDS011;2075;51.062;6.920;2023-02-17T14:20:44;3.53;;;2.97;;
4122;SDS011;2075;51.062;6.920;2023-02-17T14:23:39;3.77;;;3.07;;
4122;SDS011;2075;51.062;6.920;2023-02-17T14:26:28;3.50;;;3.20;;
4122;SDS011;2075;51.062;6.920;2023-02-17T14:29:16;6.50;;;3.13;;
4122;SDS011;2075;51.062;6.920;2023-02-17T14:32:03;4.50;;;3.13;;
4122;SDS011;2075;51.062;6.920;2023-02-17T14:34:48;9.00;;;3.00;;
4122;SDS011;2075;51.062;6.920;2023-02-17T14:37:34;3.07;;;2.73;;
4122;SDS011;2075;51.062;6.920;2023-02-17T14:40:20;4.10;;;3.27;;
4122;SDS011;2075;51.062;6.920;2023-02-17T14:43:07;6.33;;;2.97;;
4122;SDS011;2075;51.062;6.920;2023-02-17T14:45:52;4.90;;;3.27;;
4122;SDS011;2075;51.062;6.920;2023-02-17T14:48:39;4.73;;;3.10;;
4122;SDS011;2075;51.062;6.920;2023-02-17T14:51:29;2.93;;;2.73;;
4122;SDS011;2075;51.062;6.920;2023-02-17T14:54:17;10.17;;;3.37;;
4122;SDS011;2075;51.062;6.920;2023-02-17T14:57:04;5.30;;;2.90;;
4122;SDS011;2075;51.062;6.920;2023-02-17T14:59:51;7.30;;;3.33;;
4122;SDS011;2075;51.062;6.920;2023-02-17T15:02:40;5.73;;;3.17;;
4122;SDS011;2075;51.062;6.920;2023-02-17T15:05:27;9.33;;;2.90;;
4122;SDS011;2075;51.062;6.920;2023-02-17T15:08:13;10.40;;;2.90;;
4122;SDS011;2075;51.062;6.920;2023-02-17T15:11:01;9.23;;;2.20;;
4122;SDS011;2075;51.062;6.920;2023-02-17T15:13:47;6.70;;;2.83;;
4122;SDS011;2075;51.062;6.920;2023-02-17T15:16:32;8.83;;;2.43;;
4122;SDS011;2075;51.062;6.920;2023-02-17T15:19:18;4.80;;;2.43;;
4122;SDS011;2075;51.062;6.920;2023-02-17T15:22:05;7.20;;;2.60;;
4122;SDS011;2075;51.062;6.920;2023-02-17T15:24:51;13.63;;;2.40;;
4122;SDS011;2075;51.062;6.920;2023-02-17T15:27:38;9.77;;;3.47;;
4122;SDS011;2075;51.062;6.920;2023-02-17T15:30:23;8.60;;;2.60;;
4122;SDS011;2075;51.062;6.920;2023-02-17T15:33:10;9.93;;;3.50;;
4122;SDS011;2075;51.062;6.920;2023-02-17T15:35:56;5.70;;;2.60;;
4122;SDS011;2075;51.062;6.920;2023-02-17T15:38:43;21.07;;;3.17;;
4122;SDS011;2075;51.062;6.920;2023-02-17T15:41:29;8.93;;;2.80;;
4122;SDS011;2075;51.062;6.920;2023-02-17T15:44:15;5.73;;;2.80;;
4122;SDS011;2075;51.062;6.920;2023-02-17T15:47:03;18.47;;;4.60;;
4122;SDS011;2075;51.062;6.920;2023-02-17T15:49:49;8.10;;;2.33;;
4122;SDS011;2075;51.062;6.920;2023-02-17T15:52:35;4.10;;;2.40;;
4122;SDS011;2075;51.062;6.920;2023-02-17T15:55:21;5.10;;;2.27;;
4122;SDS011;2075;51.062;6.920;2023-02-17T15:58:09;13.10;;;2.10;;
4122;SDS011;2075;51.062;6.920;2023-02-17T16:01:01;11.87;;;2.77;;
4122;SDS011;2075;51.062;6.920;2023-02-17T16:03:48;5.60;;;2.53;;
4122;SDS011;2075;51.062;6.920;2023-02-17T16:06:33;6.00;;;2.70;;
4122;SDS011;2075;51.062;6.920;2023-02-17T16:09:18;6.10;;;2.27;;
4122;SDS011;2075;51.062;6.920;2023-02-17T16:12:07;6.30;;;2.20;;
4122;SDS011;2075;51.062;6.920;2023-02-17T16:14:58;7.53;;;2.70;;
4122;SDS011;2075;51.062;6.920;2023-02-17T16:17:44;5.00;;;3.33;;
4122;SDS011;2075;51.062;6.920;2023-02-17T16:20:31;3.00;;;2.70;;
4122;SDS011;2075;51.062;6.920;2023-02-17T16:23:17;4.50;;;3.00;;
4122;SDS011;2075;51.062;6.920;2023-02-17T16:26:03;5.97;;;3.20;;
4122;SDS011;2075;51.062;6.920;2023-02-17T16:28:51;2.90;;;2.70;;
4122;SDS011;2075;51.062;6.920;2023-02-17T16:31:37;3.63;;;2.13;;
4122;SDS011;2075;51.062;6.920;2023-02-17T16:34:22;14.30;;;2.40;;
4122;SDS011;2075;51.062;6.920;2023-02-17T16:37:10;6.30;;;2.53;;
4122;SDS011;2075;51.062;6.920;2023-02-17T16:39:57;3.57;;;2.77;;
4122;SDS011;2075;51.062;6.920;2023-02-17T16:42:43;6.13;;;3.60;;
4122;SDS011;2075;51.062;6.920;2023-02-17T16:45:30;14.60;;;4.73;;
4122;SDS011;2075;51.062;6.920;2023-02-17T16:48:17;35.00;;;10.40;;
4122;SDS011;2075;51.062;6.920;2023-02-17T16:51:04;10.63;;;2.90;;
4122;SDS011;2075;51.062;6.920;2023-02-17T16:53:54;4.40;;;2.80;;
4122;SDS011;2075;51.062;6.920;2023-02-17T16:56:40;4.67;;;3.57;;
4122;SDS011;2075;51.062;6.920;2023-02-17T16:59:28;4.30;;;2.67;;
4122;SDS011;2075;51.062;6.920;2023-02-17T17:02:17;9.30;;;2.83;;
4122;SDS011;2075;51.062;6.920;2023-02-17T17:05:02;4.80;;;3.33;;
4122;SDS011;2075;51.062;6.920;2023-02-17T17:07:48;3.10;;;2.80;;
4122;SDS011;2075;51.062;6.920;2023-02-17T17:10:34;4.60;;;3.53;;
4122;SDS011;2075;51.062;6.920;2023-02-17T17:13:22;7.77;;;3.63;;
4122;SDS011;2075;51.062;6.920;2023-02-17T17:16:09;4.77;;;3.70;;
4122;SDS011;2075;51.062;6.920;2023-02-17T17:18:57;4.70;;;3.23;;
4122;SDS011;2075;51.062;6.920;2023-02-17T17:21:43;5.40;;;4.37;;
4122;SDS011;2075;51.062;6.920;2023-02-17T17:24:29;3.67;;;3.37;;
4122;SDS011;2075;51.062;6.920;2023-02-17T17:27:14;5.07;;;3.30;;
4122;SDS011;2075;51.062;6.920;2023-02-17T17:30:00;3.90;;;3.60;;